Terminal Aerodrome Forecast
Issued by NWS

Home | Current Version | Previous Version | Text Only | Print | Product List | Glossary On
Versions: 1 2 3 4 5 6 7 8 9 10 11 12 13 14 15 16 17 18
000
FTUS41 KCAR 240200 AAA
TAFPQI
TAF AMD
KPQI 240234Z 2403/2424 33010KT 6SM -SHRASN OVC010
     FM240500 33012KT 1SM -SN BR OVC004
     FM241300 34012G20KT 2SM -RA BR OVC005
     FM241900 36015G23KT P6SM OVC010
      AMD LTD TO CLD VIS AND WIND=

USA.gov is the U.S. government's official web portal to all federal, state and local government web resources and services.